Terminal Aerodrome Forecast
Issued by NWS

Current Version | Previous Version | Text Only | Print | Product List | Glossary On
Versions: 1 2 3 4 5 6 7 8 9 10 11 12 13 14 15 16 17 18 19 20
000
FTUS41 KGYX 211720
TAFLEB
TAF
KLEB 211720Z 2118/2218 02003KT 4SM -RA BR OVC010
     FM220500 00000KT 1/2SM -RA FG OVC001
     FM221400 35008KT 2SM -RA BR OVC007=

USA.gov is the U.S. government's official web portal to all federal, state and local government web resources and services.